Detall de PIREP

Printer-friendly versionPDF version

[2013/06/17 09:04:00]
Flight IATA:CT2301
Pilot Number:011
Company ICAO:CAT
Aircraft Type:B738/F
PAX:160
Departing Airport: LIBD
Destination Airport: LIEA
Alternate Airport:LIEO
Online: VATSIM
Route:TOPNO UP748 BUMOK UM742 SOR UM603 MOROB
Flight Level:F360
No Slew and time accel
No pause
Crash detect
Detect pilot in Cockpit between each 30 and 45 minutes
09:04 Zero fuel Weight: 135990 Lbs, Fuel Weight: 15533 Lbs
09:04 VATSIM:LIBD 170820Z 03007KT 340V070 CAVOK 28/14 Q1017
09:04 VATSIM:LIEA 170820Z 07007KT 040V100 CAVOK 33/14 Q1014
09:06 Parking Brakes off
09:16 Take-off
09:16 Take off Weight: 150686 Lbs
09:16 Wind: 028º @ 007 Knots Heading: 250º
09:16 POS N41º 08´ 12´´ E016º 45´ 18´´
09:16 Gear Up: 161 Knots
09:16 Flaps:5 at 161 Knots
09:17 Flaps:4 at 173 Knots
09:17 Flaps:3 at 180 Knots
09:18 Flaps:2 at 188 Knots
09:18 Flaps:1 at 189 Knots
09:18 Flaps:0 at 190 Knots
09:31 Wind:243º@013 Knots Heading: 262º Ground Speed: 412 Knots Altitude 31131 ft
09:34 TOC
09:34 Fuel Weight: 11264 Lb
09:46 Wind:231º@010 Knots Heading: 267º Ground Speed: 461 Knots Altitude 36118 ft
09:55 TOD
09:55 Fuel Weight: 9442 Lb
10:01 Wind:085º@024 Knots Heading: 265º Ground Speed: 428 Knots Altitude 25892 ft
10:13 Flaps:1 at 246 Knots
10:13 Flaps:2 at 244 Knots
10:13 Flaps:3 at 239 Knots
10:14 Flaps:4 at 182 Knots
10:14 Flaps:5 at 179 Knots
10:15 Flaps:6 at 159 Knots
10:15 Gear Down: 159 Knots
10:16 Wind:112º@016 Knots Heading: 215º Ground Speed: 179 Knots Altitude 5009 ft
10:17 Flaps:7 at 147 Knots
10:20 Flaps:8 at 142 Knots
10:25 TouchDown:Rate -260 ft/min Speed: 108 Knots
10:26 VATSIM:LIEA 170950Z VRB02KT CAVOK 36/13 Q1014
10:26 Land
10:26 Wind:106º@007 Knots
10:26 Heading: 024º
10:26 Flight Duration: 01:10
10:26 Landing Weight: 143151 Lbs
10:26 POS N40º 37´ 55´´ E008º 17´ 26´´
10:29 Parking brakes on
10:29 Block to Block Duration: 01:23
10:29 Final Fuel: 6891 Lbls
10:29 Spent Fuel: 8641 Lbls
10:29 Flight Length: 417 NM
10:29 TOD Land Length: 154 NM

Exportar CSV

Powered by Drupal - Modified by Danger4k